createdAt,value
2017-12-15T00:01:49.398Z,13.90
2017-12-15T00:04:16.959Z,11.03
2017-12-15T00:06:44.423Z,10.70
2017-12-15T00:09:11.878Z,12.60
2017-12-15T00:11:40.877Z,11.40
2017-12-15T00:14:08.330Z,12.73
2017-12-15T00:16:35.803Z,12.97
2017-12-15T00:19:04.046Z,13.57
2017-12-15T00:21:31.527Z,16.63
2017-12-15T00:23:59.038Z,13.80
2017-12-15T00:26:26.492Z,12.33
2017-12-15T00:28:54.158Z,19.87
2017-12-15T00:31:21.617Z,11.77
2017-12-15T00:33:49.099Z,20.60
2017-12-15T00:36:16.603Z,16.50
2017-12-15T00:38:44.838Z,21.00
2017-12-15T00:41:12.311Z,20.80
2017-12-15T00:43:40.579Z,15.57
2017-12-15T00:46:08.043Z,15.70
2017-12-15T00:48:35.503Z,16.73
2017-12-15T00:51:03.754Z,20.33
2017-12-15T00:53:31.251Z,16.47
2017-12-15T00:55:59.506Z,20.23
2017-12-15T00:58:27.735Z,20.83
2017-12-15T01:00:55.223Z,20.00
2017-12-15T01:03:22.702Z,16.70
2017-12-15T01:05:50.948Z,18.73
2017-12-15T01:08:18.426Z,20.10
2017-12-15T01:10:45.886Z,19.03
2017-12-15T01:13:14.144Z,22.07
2017-12-15T01:15:41.599Z,19.20
2017-12-15T01:18:09.086Z,20.50
2017-12-15T01:20:37.326Z,18.43
2017-12-15T01:23:04.783Z,18.47
2017-12-15T01:25:32.262Z,18.93
2017-12-15T01:28:00.500Z,23.43
2017-12-15T01:30:27.987Z,20.63
2017-12-15T01:32:56.238Z,22.83
2017-12-15T01:35:23.713Z,20.20
2017-12-15T01:37:51.955Z,19.50
2017-12-15T01:40:19.426Z,20.50
2017-12-15T01:42:46.914Z,20.23
2017-12-15T01:45:15.146Z,19.20
2017-12-15T01:47:42.627Z,21.90
2017-12-15T01:50:10.104Z,17.90
2017-12-15T01:52:38.345Z,21.43
2017-12-15T01:55:05.804Z,19.40
2017-12-15T01:57:33.290Z,22.50
2017-12-15T02:00:01.549Z,29.50
2017-12-15T02:02:29.013Z,20.50
2017-12-15T02:04:56.494Z,18.20
2017-12-15T02:07:23.958Z,20.13
2017-12-15T02:09:51.424Z,20.10
2017-12-15T02:12:18.910Z,19.50
2017-12-15T02:14:46.371Z,18.30
2017-12-15T02:17:13.851Z,18.53
2017-12-15T02:19:41.423Z,20.10
2017-12-15T02:22:09.661Z,20.60
2017-12-15T02:24:37.135Z,16.30
2017-12-15T02:27:04.602Z,14.73
2017-12-15T02:29:32.851Z,18.73
2017-12-15T02:32:00.315Z,15.60
2017-12-15T02:34:27.791Z,14.40
2017-12-15T02:36:56.023Z,19.17
2017-12-15T02:39:23.483Z,21.47
2017-12-15T02:41:50.966Z,19.63
2017-12-15T02:44:18.435Z,15.83
2017-12-15T02:46:45.891Z,20.30
2017-12-15T02:49:14.142Z,16.23
2017-12-15T02:51:41.607Z,17.73
2017-12-15T02:54:09.091Z,19.17
2017-12-15T02:56:37.334Z,19.27
2017-12-15T02:59:04.795Z,14.23
2017-12-15T03:01:32.273Z,20.80
2017-12-15T03:04:00.527Z,19.33
2017-12-15T03:06:28.010Z,27.60
2017-12-15T03:08:56.238Z,15.13
2017-12-15T03:11:23.726Z,19.50
2017-12-15T03:13:51.214Z,20.90
2017-12-15T03:16:18.671Z,23.90
2017-12-15T03:18:46.151Z,20.43
2017-12-15T03:21:13.646Z,20.87
2017-12-15T03:23:41.103Z,22.77
2017-12-15T03:26:08.594Z,31.07
2017-12-15T03:28:36.110Z,21.67
2017-12-15T03:31:03.572Z,24.43
2017-12-15T03:33:31.043Z,28.67
2017-12-15T03:36:02.155Z,28.67
2017-12-15T03:38:29.633Z,25.50
2017-12-15T03:40:57.098Z,23.83
2017-12-15T03:43:25.616Z,25.87
2017-12-15T03:45:53.067Z,19.03
2017-12-15T03:48:20.531Z,24.63
2017-12-15T03:50:48.006Z,31.30
2017-12-15T03:53:15.480Z,22.87
2017-12-15T03:55:42.950Z,26.93
2017-12-15T03:58:10.434Z,21.67
2017-12-15T04:00:37.923Z,21.30
2017-12-15T04:03:05.386Z,22.73
2017-12-15T04:05:32.875Z,24.37
2017-12-15T04:08:00.342Z,27.50
2017-12-15T04:10:28.582Z,24.77
2017-12-15T04:12:56.059Z,18.90
2017-12-15T04:15:23.545Z,20.20
2017-12-15T04:17:51.018Z,29.00
2017-12-15T04:20:18.490Z,21.10
2017-12-15T04:22:45.971Z,20.20
2017-12-15T04:25:13.440Z,23.27
2017-12-15T04:27:40.903Z,23.20
2017-12-15T04:30:08.386Z,22.20
2017-12-15T04:32:36.616Z,25.30
2017-12-15T04:35:04.116Z,24.60
2017-12-15T04:37:31.586Z,21.03
2017-12-15T04:39:59.047Z,23.63
2017-12-15T04:42:26.526Z,24.30
2017-12-15T04:44:53.990Z,22.70
2017-12-15T04:47:21.466Z,21.90
2017-12-15T04:49:48.949Z,26.60
2017-12-15T04:52:17.182Z,21.33
2017-12-15T04:54:44.668Z,19.17
2017-12-15T04:57:17.350Z,21.10
2017-12-15T04:59:45.583Z,20.70
2017-12-15T05:02:13.047Z,18.00
2017-12-15T05:04:40.606Z,25.20
2017-12-15T05:07:08.082Z,24.87
2017-12-15T05:09:35.557Z,22.07
2017-12-15T05:12:03.032Z,23.93
2017-12-15T05:14:30.494Z,17.10
2017-12-15T05:16:57.998Z,22.60
2017-12-15T05:19:25.450Z,17.87
2017-12-15T05:21:52.963Z,15.30
2017-12-15T05:24:20.391Z,19.10
2017-12-15T05:26:48.630Z,22.00
2017-12-15T05:29:16.087Z,16.77
2017-12-15T05:31:43.550Z,16.67
2017-12-15T05:34:11.031Z,22.60
2017-12-15T05:36:38.495Z,23.53
2017-12-15T05:39:06.746Z,24.90
2017-12-15T05:41:34.226Z,27.60
2017-12-15T05:44:02.476Z,23.97
2017-12-15T05:46:29.941Z,18.77
2017-12-15T05:48:57.452Z,23.37
2017-12-15T05:51:24.910Z,20.30
2017-12-15T05:53:52.394Z,18.50
2017-12-15T05:56:19.856Z,24.00
2017-12-15T05:58:47.312Z,18.20
2017-12-15T06:01:14.786Z,21.90
2017-12-15T06:03:42.345Z,25.93
2017-12-15T06:06:10.586Z,22.17
2017-12-15T06:08:38.058Z,19.57
2017-12-15T06:11:05.538Z,18.43
2017-12-15T06:13:33.018Z,20.67
2017-12-15T06:16:01.247Z,18.10
2017-12-15T06:18:29.532Z,21.30
2017-12-15T06:20:57.004Z,23.90
2017-12-15T06:23:24.464Z,17.77
2017-12-15T06:25:52.706Z,25.10
2017-12-15T06:28:20.184Z,22.07
2017-12-15T06:30:47.639Z,17.93
2017-12-15T06:33:15.112Z,19.67
2017-12-15T06:35:43.334Z,19.47
2017-12-15T06:38:10.815Z,18.07
2017-12-15T06:40:38.270Z,15.80
2017-12-15T06:43:05.763Z,25.03
2017-12-15T06:45:33.995Z,27.17
2017-12-15T06:48:01.464Z,24.90
2017-12-15T06:50:28.934Z,18.70
2017-12-15T06:52:57.163Z,12.00
2017-12-15T06:55:25.004Z,11.60
2017-12-15T06:57:52.519Z,15.87
2017-12-15T07:00:19.994Z,15.93
2017-12-15T07:02:48.238Z,15.70
2017-12-15T07:05:15.710Z,18.00
2017-12-15T07:07:43.190Z,22.63
2017-12-15T07:10:10.668Z,16.47
2017-12-15T07:12:38.131Z,15.43
2017-12-15T07:15:05.605Z,15.20
2017-12-15T07:17:33.087Z,13.30
2017-12-15T07:20:00.545Z,20.23
2017-12-15T07:22:28.017Z,20.47
2017-12-15T07:24:56.253Z,18.90
2017-12-15T07:27:23.739Z,20.40
2017-12-15T07:29:51.208Z,18.97
2017-12-15T07:32:19.452Z,23.97
2017-12-15T07:34:46.914Z,23.00
2017-12-15T07:37:14.375Z,15.57
2017-12-15T07:39:41.850Z,17.73
2017-12-15T07:42:10.090Z,17.73
2017-12-15T07:44:37.554Z,21.00
2017-12-15T07:47:05.014Z,23.30
2017-12-15T07:49:34.108Z,21.30
2017-12-15T07:52:01.582Z,17.40
2017-12-15T07:54:29.058Z,32.60
2017-12-15T07:56:56.522Z,37.73
2017-12-15T07:59:24.006Z,17.93
2017-12-15T08:01:51.472Z,18.30
2017-12-15T08:04:18.939Z,21.30
2017-12-15T08:06:46.427Z,18.73
2017-12-15T08:09:13.870Z,21.63
2017-12-15T08:11:41.347Z,15.53
2017-12-15T08:14:09.660Z,15.77
2017-12-15T08:16:37.141Z,19.83
2017-12-15T08:19:04.606Z,18.23
2017-12-15T08:21:32.074Z,17.73
2017-12-15T08:23:59.687Z,13.13
2017-12-15T08:26:27.167Z,20.97
2017-12-15T08:28:54.626Z,13.97
2017-12-15T08:31:22.120Z,22.43
2017-12-15T08:33:50.347Z,21.70
2017-12-15T08:36:17.832Z,17.60
2017-12-15T08:38:45.282Z,13.67
2017-12-15T08:41:12.762Z,18.10
2017-12-15T08:43:40.998Z,20.60
2017-12-15T08:46:08.477Z,14.37
2017-12-15T08:48:35.939Z,20.80
2017-12-15T08:51:03.428Z,22.17
2017-12-15T08:53:30.898Z,13.17
2017-12-15T08:55:58.398Z,11.37
2017-12-15T08:58:25.858Z,14.50
2017-12-15T09:00:53.324Z,13.63
2017-12-15T09:03:20.797Z,14.33
2017-12-15T09:05:49.031Z,13.30
2017-12-15T09:08:16.530Z,19.73
2017-12-15T09:10:44.758Z,19.07
2017-12-15T09:13:12.231Z,17.50
2017-12-15T09:15:39.694Z,12.70
2017-12-15T09:18:07.163Z,16.00
2017-12-15T09:20:35.397Z,21.50
2017-12-15T09:23:02.879Z,16.60
2017-12-15T09:25:30.350Z,11.97
2017-12-15T09:27:58.588Z,12.27
2017-12-15T09:30:26.054Z,16.40
2017-12-15T09:32:53.506Z,8.57
2017-12-15T09:35:20.978Z,11.93
2017-12-15T09:37:48.446Z,16.03
2017-12-15T09:40:16.676Z,16.37
2017-12-15T09:42:44.127Z,8.23
2017-12-15T09:45:11.603Z,8.53
2017-12-15T09:47:39.077Z,11.10
2017-12-15T09:50:07.319Z,10.60
2017-12-15T09:52:34.779Z,10.60
2017-12-15T09:55:02.259Z,13.10
2017-12-15T09:57:29.720Z,14.50
2017-12-15T09:59:57.183Z,16.10
2017-12-15T10:02:25.426Z,19.80
2017-12-15T10:04:52.903Z,9.07
2017-12-15T10:07:20.375Z,11.83
2017-12-15T10:09:47.871Z,16.00
2017-12-15T10:12:15.357Z,20.83
2017-12-15T10:14:42.814Z,15.37
2017-12-15T10:17:10.296Z,6.70
2017-12-15T10:19:37.763Z,9.63
2017-12-15T10:22:06.022Z,7.50
2017-12-15T10:24:33.523Z,14.60
2017-12-15T10:27:01.760Z,9.63
2017-12-15T10:29:29.211Z,13.80
2017-12-15T10:31:56.787Z,16.00
2017-12-15T10:34:24.266Z,9.87
2017-12-15T10:36:51.722Z,7.13
2017-12-15T10:39:19.205Z,11.03
2017-12-15T10:41:46.655Z,12.87
2017-12-15T10:44:14.139Z,6.67
2017-12-15T10:46:41.598Z,9.20
2017-12-15T10:49:09.058Z,10.40
2017-12-15T10:51:36.550Z,12.57
2017-12-15T10:54:04.780Z,15.93
2017-12-15T10:56:32.267Z,10.17
2017-12-15T10:59:00.496Z,12.30
2017-12-15T11:01:27.966Z,13.00
2017-12-15T11:03:55.424Z,11.57
2017-12-15T11:06:22.931Z,12.90
2017-12-15T11:08:51.172Z,11.87
2017-12-15T11:11:18.661Z,8.87
2017-12-15T11:13:46.907Z,11.20
2017-12-15T11:16:15.126Z,16.00
2017-12-15T11:18:42.605Z,14.07
2017-12-15T11:21:10.067Z,15.57
2017-12-15T11:23:37.563Z,20.10
2017-12-15T11:26:05.803Z,20.17
2017-12-15T11:28:33.336Z,11.20
2017-12-15T11:31:00.838Z,16.37
2017-12-15T11:33:28.322Z,12.13
2017-12-15T11:35:56.579Z,25.87
2017-12-15T11:38:24.057Z,11.27
2017-12-15T11:40:52.471Z,12.13
2017-12-15T11:43:19.981Z,15.03
2017-12-15T11:45:47.454Z,13.03
2017-12-15T11:48:14.919Z,18.30
2017-12-15T11:50:42.407Z,14.00
2017-12-15T11:53:09.859Z,15.57
2017-12-15T11:55:37.322Z,13.33
2017-12-15T11:58:04.800Z,16.30
2017-12-15T12:00:32.271Z,14.27
2017-12-15T12:02:59.749Z,12.50
2017-12-15T12:05:27.211Z,12.40
2017-12-15T12:07:54.683Z,10.63
2017-12-15T12:10:22.134Z,12.00
2017-12-15T12:12:49.645Z,14.27
2017-12-15T12:15:17.080Z,12.60
2017-12-15T12:17:44.550Z,8.83
2017-12-15T12:20:12.051Z,14.23
2017-12-15T12:22:39.515Z,6.37
2017-12-15T12:25:06.982Z,6.27
2017-12-15T12:27:34.459Z,14.47
2017-12-15T12:30:01.931Z,9.83
2017-12-15T12:32:29.382Z,11.77
2017-12-15T12:34:56.850Z,19.80
2017-12-15T12:37:24.322Z,8.83
2017-12-15T12:39:51.778Z,8.90
2017-12-15T12:42:20.030Z,13.33
2017-12-15T12:44:47.526Z,17.20
2017-12-15T12:47:15.019Z,8.93
2017-12-15T12:49:42.483Z,12.00
2017-12-15T12:52:09.964Z,13.23
2017-12-15T12:54:37.430Z,11.47
2017-12-15T12:57:05.695Z,14.63
2017-12-15T12:59:34.679Z,8.40
2017-12-15T13:02:02.138Z,7.97
2017-12-15T13:04:29.611Z,13.30
2017-12-15T13:06:57.075Z,6.47
2017-12-15T13:09:25.294Z,9.20
2017-12-15T13:11:52.779Z,13.93
2017-12-15T13:14:20.233Z,5.93
2017-12-15T13:16:47.702Z,9.53
2017-12-15T13:19:15.164Z,10.80
2017-12-15T13:21:42.707Z,8.37
2017-12-15T13:24:10.180Z,6.83
2017-12-15T13:26:37.639Z,6.70
2017-12-15T13:29:05.106Z,8.23
2017-12-15T13:31:33.333Z,8.43
2017-12-15T13:34:00.807Z,7.70
2017-12-15T13:36:28.266Z,8.07
2017-12-15T13:38:55.733Z,9.43
2017-12-15T13:41:23.215Z,6.90
2017-12-15T13:43:51.440Z,7.67
2017-12-15T13:46:18.917Z,7.40
2017-12-15T13:48:46.374Z,6.80
2017-12-15T13:51:13.849Z,5.93
2017-12-15T13:53:42.074Z,6.57
2017-12-15T13:56:09.551Z,6.63
2017-12-15T13:58:37.013Z,7.10
2017-12-15T14:01:04.466Z,7.50
2017-12-15T14:03:31.936Z,8.57
2017-12-15T14:05:59.412Z,10.80
2017-12-15T14:08:27.651Z,7.30
2017-12-15T14:10:55.105Z,8.20
2017-12-15T14:13:22.571Z,8.43
2017-12-15T14:15:50.049Z,8.77
2017-12-15T14:18:18.282Z,7.77
2017-12-15T14:20:45.778Z,14.83
2017-12-15T14:23:14.008Z,10.80
2017-12-15T14:25:41.489Z,10.73
2017-12-15T14:28:08.964Z,8.30
2017-12-15T14:30:37.214Z,5.73
2017-12-15T14:33:04.690Z,7.60
2017-12-15T14:35:32.135Z,7.00
2017-12-15T14:37:59.623Z,6.67
2017-12-15T14:40:27.846Z,4.73
2017-12-15T14:42:55.338Z,6.17
2017-12-15T14:45:22.801Z,7.90
2017-12-15T14:47:51.042Z,6.50
2017-12-15T14:50:18.519Z,8.13
2017-12-15T14:52:45.987Z,6.80
2017-12-15T14:55:14.248Z,6.20
2017-12-15T14:57:41.712Z,9.60
2017-12-15T15:00:09.195Z,7.13
2017-12-15T15:02:36.654Z,8.47
2017-12-15T15:05:04.131Z,7.50
2017-12-15T15:07:31.603Z,26.27
2017-12-15T15:09:59.075Z,20.13
2017-12-15T15:12:28.067Z,13.50
2017-12-15T15:14:55.526Z,10.80
2017-12-15T15:17:23.009Z,10.37
2017-12-15T15:19:51.230Z,8.60
2017-12-15T15:22:18.707Z,9.97
2017-12-15T15:24:48.367Z,8.80
2017-12-15T15:27:16.606Z,8.40
2017-12-15T15:29:44.089Z,11.47
2017-12-15T15:32:12.339Z,13.07
2017-12-15T15:34:39.818Z,21.87
2017-12-15T15:37:08.062Z,22.80
2017-12-15T15:39:35.550Z,15.93
2017-12-15T15:42:03.055Z,15.90
2017-12-15T15:44:30.507Z,11.93
2017-12-15T15:46:58.000Z,13.80
2017-12-15T15:49:25.507Z,10.47
2017-12-15T15:51:52.968Z,8.53
2017-12-15T15:54:20.465Z,8.20
2017-12-15T15:56:47.927Z,8.43
2017-12-15T15:59:16.155Z,9.70
2017-12-15T16:01:43.673Z,10.00
2017-12-15T16:04:11.892Z,7.63
2017-12-15T16:06:39.350Z,10.03
2017-12-15T16:09:06.835Z,10.00
2017-12-15T16:11:35.146Z,16.80
2017-12-15T16:14:03.396Z,12.33
2017-12-15T16:16:30.859Z,12.23
2017-12-15T16:18:59.083Z,11.70
2017-12-15T16:21:26.571Z,10.37
2017-12-15T16:23:54.058Z,13.03
2017-12-15T16:26:22.277Z,15.20
2017-12-15T16:28:49.727Z,13.87
2017-12-15T16:31:17.214Z,13.27
2017-12-15T16:33:44.694Z,12.00
2017-12-15T16:36:12.960Z,14.47
2017-12-15T16:38:40.431Z,10.70
2017-12-15T16:41:08.687Z,17.03
2017-12-15T16:43:36.150Z,10.33
2017-12-15T16:46:03.616Z,10.43
2017-12-15T16:48:31.866Z,13.57
2017-12-15T16:50:59.322Z,13.73
2017-12-15T16:53:26.885Z,19.27
2017-12-15T16:55:55.319Z,12.00
2017-12-15T16:58:22.799Z,20.33
2017-12-15T17:00:50.295Z,15.53
2017-12-15T17:03:17.874Z,28.77
2017-12-15T17:05:46.102Z,20.17
2017-12-15T17:08:13.584Z,16.37
2017-12-15T17:10:41.819Z,23.30
2017-12-15T17:13:09.275Z,21.00
2017-12-15T17:15:36.758Z,24.10
2017-12-15T17:18:04.221Z,16.80
2017-12-15T17:20:31.716Z,27.03
2017-12-15T17:22:59.204Z,29.60
2017-12-15T17:25:26.683Z,36.67
2017-12-15T17:27:54.149Z,22.77
2017-12-15T17:30:23.136Z,19.43
2017-12-15T17:32:50.624Z,14.80
2017-12-15T17:35:18.100Z,13.97
2017-12-15T17:37:45.581Z,15.70
2017-12-15T17:40:13.046Z,19.50
2017-12-15T17:42:40.564Z,19.00
2017-12-15T17:45:08.029Z,17.70
2017-12-15T17:47:35.590Z,19.87
2017-12-15T17:50:03.059Z,22.20
2017-12-15T17:52:30.543Z,18.80
2017-12-15T17:54:58.015Z,18.93
2017-12-15T17:57:26.278Z,19.30
2017-12-15T17:59:53.753Z,18.97
2017-12-15T18:02:21.231Z,17.10
2017-12-15T18:04:48.716Z,17.13
2017-12-15T18:07:16.183Z,14.30
2017-12-15T18:09:43.672Z,15.27
2017-12-15T18:12:11.903Z,22.83
2017-12-15T18:14:39.391Z,20.23
2017-12-15T18:17:06.871Z,13.90
2017-12-15T18:19:35.110Z,19.13
2017-12-15T18:22:02.600Z,14.87
2017-12-15T18:24:30.847Z,17.23
2017-12-15T18:26:58.645Z,20.20
2017-12-15T18:29:26.158Z,15.80
2017-12-15T18:31:53.647Z,20.20
2017-12-15T18:34:21.887Z,22.37
2017-12-15T18:36:49.384Z,16.50
2017-12-15T18:39:16.845Z,17.27
2017-12-15T18:41:45.102Z,24.30
2017-12-15T18:44:12.593Z,19.07
2017-12-15T18:46:40.071Z,14.90
2017-12-15T18:49:07.547Z,13.83
2017-12-15T18:51:35.056Z,17.10
2017-12-15T18:54:02.569Z,19.20
2017-12-15T18:56:30.031Z,15.20
2017-12-15T18:58:57.579Z,16.20
2017-12-15T19:01:25.040Z,16.20
2017-12-15T19:03:52.507Z,17.80
2017-12-15T19:06:19.970Z,18.33
2017-12-15T19:08:47.464Z,23.83
2017-12-15T19:11:14.948Z,20.63
2017-12-15T19:13:42.427Z,15.13
2017-12-15T19:16:09.918Z,19.97
2017-12-15T19:18:38.148Z,19.53
2017-12-15T19:21:05.626Z,15.40
2017-12-15T19:23:33.158Z,23.57
2017-12-15T19:26:00.635Z,20.43
2017-12-15T19:28:29.711Z,18.20
2017-12-15T19:30:57.191Z,19.43
2017-12-15T19:33:24.665Z,19.73
2017-12-15T19:35:52.927Z,19.10
2017-12-15T19:38:20.426Z,18.07
2017-12-15T19:40:47.932Z,19.90
2017-12-15T19:43:15.412Z,16.97
2017-12-15T19:45:43.672Z,29.37
2017-12-15T19:48:11.165Z,16.90
2017-12-15T19:50:38.656Z,16.50
2017-12-15T19:53:06.134Z,17.37
2017-12-15T19:55:33.602Z,19.57
2017-12-15T19:58:01.102Z,15.60
2017-12-15T20:00:28.631Z,18.20
2017-12-15T20:02:56.911Z,19.50
2017-12-15T20:05:25.157Z,20.47
2017-12-15T20:07:52.683Z,22.30
2017-12-15T20:10:20.146Z,17.70
2017-12-15T20:12:47.643Z,17.23
2017-12-15T20:15:15.122Z,17.10
2017-12-15T20:17:43.367Z,19.77
2017-12-15T20:20:10.924Z,18.47
2017-12-15T20:22:38.430Z,24.63
2017-12-15T20:25:05.911Z,22.00
2017-12-15T20:27:33.379Z,28.03
2017-12-15T20:30:00.859Z,22.67
2017-12-15T20:32:28.386Z,23.83
2017-12-15T20:34:55.863Z,21.20
2017-12-15T20:37:23.345Z,24.70
2017-12-15T20:39:51.663Z,23.17
2017-12-15T20:42:19.155Z,21.00
2017-12-15T20:44:48.152Z,21.97
2017-12-15T20:47:15.663Z,25.00
2017-12-15T20:49:43.142Z,26.47
2017-12-15T20:52:10.607Z,23.07
2017-12-15T20:54:39.620Z,21.97
2017-12-15T20:57:07.115Z,22.83
2017-12-15T20:59:34.686Z,25.10
2017-12-15T21:02:02.165Z,20.00
2017-12-15T21:04:29.659Z,22.30
2017-12-15T21:06:57.911Z,26.27
2017-12-15T21:09:25.387Z,27.63
2017-12-15T21:11:53.933Z,24.70
2017-12-15T21:14:21.414Z,25.63
2017-12-15T21:16:48.895Z,23.57
2017-12-15T21:19:23.192Z,26.03
2017-12-15T21:21:50.906Z,24.40
2017-12-15T21:24:18.563Z,21.70
2017-12-15T21:26:46.087Z,27.30
2017-12-15T21:29:14.318Z,33.67
2017-12-15T21:31:41.812Z,25.57
2017-12-15T21:34:09.287Z,30.67
2017-12-15T21:36:36.775Z,24.43
2017-12-15T21:39:04.242Z,30.10
2017-12-15T21:41:31.739Z,28.07
2017-12-15T21:43:59.970Z,25.63
2017-12-15T21:46:27.459Z,26.77
2017-12-15T21:48:54.936Z,25.87
2017-12-15T21:51:23.221Z,28.63
2017-12-15T21:53:51.463Z,21.43
2017-12-15T21:56:18.974Z,23.90
2017-12-15T21:58:46.449Z,20.70
2017-12-15T22:01:13.994Z,21.43
2017-12-15T22:03:41.464Z,25.63
2017-12-15T22:06:08.995Z,24.50
2017-12-15T22:08:36.456Z,24.73
2017-12-15T22:11:03.926Z,27.37
2017-12-15T22:13:31.419Z,27.33
2017-12-15T22:15:58.890Z,25.53
2017-12-15T22:18:27.128Z,24.83
2017-12-15T22:20:54.613Z,30.37
2017-12-15T22:23:22.066Z,30.23
2017-12-15T22:25:49.622Z,27.23
2017-12-15T22:28:17.106Z,29.43
2017-12-15T22:30:44.698Z,28.97
2017-12-15T22:33:12.167Z,23.10
2017-12-15T22:35:39.665Z,31.17
2017-12-15T22:38:07.141Z,29.40
2017-12-15T22:40:34.828Z,24.87
2017-12-15T22:43:02.283Z,25.13
2017-12-15T22:45:29.775Z,28.40
2017-12-15T22:47:57.297Z,23.03
2017-12-15T22:50:24.770Z,28.53
2017-12-15T22:52:52.238Z,30.10
2017-12-15T22:55:19.723Z,29.70
2017-12-15T22:57:47.193Z,28.57
2017-12-15T23:00:17.399Z,30.70
2017-12-15T23:02:44.947Z,22.63
2017-12-15T23:05:12.438Z,27.30
2017-12-15T23:07:40.678Z,28.20
2017-12-15T23:10:08.167Z,31.23
2017-12-15T23:12:36.414Z,29.40
2017-12-15T23:15:03.902Z,26.27
2017-12-15T23:17:32.154Z,25.70
2017-12-15T23:19:59.638Z,27.60
2017-12-15T23:22:27.347Z,23.40
2017-12-15T23:24:54.830Z,28.97
2017-12-15T23:27:23.062Z,27.40
2017-12-15T23:29:50.543Z,19.67
2017-12-15T23:32:17.996Z,16.17
2017-12-15T23:34:45.466Z,18.17
2017-12-15T23:37:12.960Z,19.73
2017-12-15T23:39:40.414Z,26.80
2017-12-15T23:42:07.903Z,15.57
2017-12-15T23:44:35.384Z,19.10
2017-12-15T23:47:02.857Z,26.50
2017-12-15T23:49:31.112Z,19.37
2017-12-15T23:51:58.570Z,25.87
2017-12-15T23:54:37.971Z,25.00
2017-12-15T23:57:05.434Z,30.50
2017-12-15T23:59:32.911Z,30.43
